Time;durP1;ratioP1;P1;durP2;ratioP2;P2;SDS_P1;SDS_P2;PMS_P1;PMS_P2;Temp;Humidity;BMP_temperature;BMP_pressure;BME280_temperature;BME280_humidity;BME280_pressure;Samples;Min_cycle;Max_cycle;Signal;HPM_P1;HPM_P2
2021/09/14 00:00:57;;;;;;;11.75;8.02;;;;;;;;;;5008318;28;20433;-69
2021/09/14 00:03:22;;;;;;;11.88;8.43;;;;;;;;;;5007054;28;20220;-69
2021/09/14 00:05:47;;;;;;;14.20;8.82;;;;;;;;;;5009178;28;20595;-70
2021/09/14 00:08:12;;;;;;;13.05;8.50;;;;;;;;;;5011630;28;20202;-69
2021/09/14 00:10:37;;;;;;;12.70;7.75;;;;;;;;;;5008736;28;20613;-70
2021/09/14 00:13:03;;;;;;;10.98;9.00;;;;;;;;;;4995904;28;20195;-69
2021/09/14 00:15:28;;;;;;;13.75;9.30;;;;;;;;;;5007084;28;20652;-70
2021/09/14 00:17:53;;;;;;;14.93;9.43;;;;;;;;;;5015620;28;20539;-70
2021/09/14 00:20:18;;;;;;;13.68;9.48;;;;;;;;;;5008908;28;20217;-69
2021/09/14 00:22:43;;;;;;;15.25;9.90;;;;;;;;;;5005902;28;20194;-71
2021/09/14 00:25:09;;;;;;;11.18;8.98;;;;;;;;;;5007162;22;20235;-73
2021/09/14 00:27:35;;;;;;;12.73;8.85;;;;;;;;;;4987651;28;20263;-73
2021/09/14 00:30:01;;;;;;;11.38;8.45;;;;;;;;;;4987720;28;20207;-70
2021/09/14 00:32:26;;;;;;;9.57;8.30;;;;;;;;;;4969365;28;20184;-73
2021/09/14 00:34:51;;;;;;;10.20;8.15;;;;;;;;;;4961444;28;20207;-73
2021/09/14 00:37:16;;;;;;;12.75;8.52;;;;;;;;;;4988752;28;20187;-73
2021/09/14 00:39:41;;;;;;;13.40;8.38;;;;;;;;;;4990351;28;20676;-72
2021/09/14 00:42:07;;;;;;;11.57;8.20;;;;;;;;;;4990701;28;20187;-73
2021/09/14 00:44:32;;;;;;;13.18;8.20;;;;;;;;;;4990761;28;20557;-70
2021/09/14 00:46:57;;;;;;;11.95;8.23;;;;;;;;;;4994595;28;20590;-72
2021/09/14 00:49:22;;;;;;;13.10;9.38;;;;;;;;;;4989019;28;20167;-73
2021/09/14 00:51:47;;;;;;;12.70;8.60;;;;;;;;;;4993086;28;20191;-73
2021/09/14 00:54:13;;;;;;;10.73;7.30;;;;;;;;;;4989644;28;20202;-72
2021/09/14 00:56:38;;;;;;;11.88;9.00;;;;;;;;;;4987472;28;20215;-73
2021/09/14 00:59:04;;;;;;;10.88;8.23;;;;;;;;;;4986385;28;20187;-72
2021/09/14 01:01:29;;;;;;;11.73;7.82;;;;;;;;;;4985414;28;20317;-72
2021/09/14 01:03:54;;;;;;;11.07;8.25;;;;;;;;;;4982807;28;20200;-72
2021/09/14 01:06:19;;;;;;;10.77;8.23;;;;;;;;;;4992760;28;20199;-72
2021/09/14 01:08:45;;;;;;;11.90;8.75;;;;;;;;;;4990292;28;20182;-72
2021/09/14 01:11:10;;;;;;;17.25;9.40;;;;;;;;;;4995765;28;20657;-72
2021/09/14 01:13:35;;;;;;;13.48;7.68;;;;;;;;;;4985974;28;20212;-73
2021/09/14 01:16:08;;;;;;;11.00;7.88;;;;;;;;;;4989490;28;20187;-72
2021/09/14 01:18:34;;;;;;;11.57;8.00;;;;;;;;;;4992657;28;20602;-73
2021/09/14 01:20:59;;;;;;;11.13;8.48;;;;;;;;;;4989310;28;20266;-72
2021/09/14 01:23:24;;;;;;;9.93;7.18;;;;;;;;;;4990065;28;20210;-73
2021/09/14 01:25:49;;;;;;;10.68;8.38;;;;;;;;;;4991789;28;20537;-72
2021/09/14 01:28:14;;;;;;;11.38;8.95;;;;;;;;;;4990120;28;20656;-72
2021/09/14 01:30:40;;;;;;;10.60;7.83;;;;;;;;;;4994033;28;20220;-73
2021/09/14 01:33:05;;;;;;;12.50;8.32;;;;;;;;;;4988173;28;20923;-73
2021/09/14 01:35:31;;;;;;;10.77;8.23;;;;;;;;;;4977892;28;20309;-72
2021/09/14 01:37:57;;;;;;;15.05;8.45;;;;;;;;;;4985290;28;20509;-72
2021/09/14 01:40:22;;;;;;;11.68;8.60;;;;;;;;;;4985595;28;20172;-73
2021/09/14 01:42:47;;;;;;;8.57;7.63;;;;;;;;;;4991628;28;20548;-72
2021/09/14 01:45:13;;;;;;;8.95;7.43;;;;;;;;;;4987169;28;20689;-72
2021/09/14 01:47:39;;;;;;;10.82;8.13;;;;;;;;;;4994769;28;20250;-72
2021/09/14 01:50:05;;;;;;;12.73;8.43;;;;;;;;;;4993206;28;20270;-72
2021/09/14 01:52:31;;;;;;;11.00;8.02;;;;;;;;;;4994662;28;20548;-71
2021/09/14 01:54:56;;;;;;;16.20;9.02;;;;;;;;;;4990095;28;20195;-73
2021/09/14 01:57:26;;;;;;;11.43;8.13;;;;;;;;;;4997129;28;20182;-73
2021/09/14 01:59:54;;;;;;;12.13;8.45;;;;;;;;;;4993629;28;20250;-73
2021/09/14 02:04:53;;;;;;;12.53;8.57;;;;;;;;;;4989822;28;20208;-71
2021/09/14 02:56:19;;;;;;;13.15;9.10;;;;;;;;;;4988232;28;20208;-71
2021/09/14 03:01:01;;;;;;;13.75;9.25;;;;;;;;;;4990394;28;20182;-71
2021/09/14 03:03:26;;;;;;;13.82;10.35;;;;;;;;;;4972883;28;20593;-73
2021/09/14 03:05:51;;;;;;;14.23;10.25;;;;;;;;;;4990872;28;20605;-71
2021/09/14 03:08:16;;;;;;;13.73;9.65;;;;;;;;;;4993307;28;20230;-72
2021/09/14 03:10:41;;;;;;;13.95;9.35;;;;;;;;;;4991360;28;20559;-72
2021/09/14 03:13:07;;;;;;;15.45;10.95;;;;;;;;;;4991323;28;20263;-72
2021/09/14 03:15:32;;;;;;;15.63;10.75;;;;;;;;;;4984873;28;20818;-72
2021/09/14 03:17:57;;;;;;;15.68;10.77;;;;;;;;;;4990736;28;21612;-72
2021/09/14 03:20:22;;;;;;;13.25;9.70;;;;;;;;;;4991339;28;20191;-72
2021/09/14 03:22:47;;;;;;;20.58;10.63;;;;;;;;;;4991722;28;20172;-72
2021/09/14 03:25:12;;;;;;;18.10;10.50;;;;;;;;;;4990062;28;20227;-72
2021/09/14 03:27:38;;;;;;;15.32;11.48;;;;;;;;;;4992796;28;20203;-72
2021/09/14 03:30:03;;;;;;;14.55;10.05;;;;;;;;;;4992047;28;20180;-72
2021/09/14 03:32:29;;;;;;;13.80;11.40;;;;;;;;;;4998170;28;20172;-71
2021/09/14 03:34:54;;;;;;;18.30;11.90;;;;;;;;;;4994570;28;20744;-72
2021/09/14 03:37:19;;;;;;;17.50;12.27;;;;;;;;;;4981129;28;20471;-71
2021/09/14 03:39:44;;;;;;;17.58;11.48;;;;;;;;;;4983381;28;20187;-72
2021/09/14 03:42:09;;;;;;;19.13;11.70;;;;;;;;;;4986699;28;20191;-72
2021/09/14 03:44:34;;;;;;;15.60;11.38;;;;;;;;;;4989099;28;20242;-74
2021/09/14 03:47:00;;;;;;;17.52;12.05;;;;;;;;;;4990546;28;20203;-71
2021/09/14 03:49:25;;;;;;;14.25;11.55;;;;;;;;;;4988646;28;20567;-72
2021/09/14 03:51:50;;;;;;;15.32;11.35;;;;;;;;;;4988517;28;20196;-73
2021/09/14 03:54:15;;;;;;;17.33;12.63;;;;;;;;;;4986184;28;20203;-71
2021/09/14 03:56:40;;;;;;;18.02;12.48;;;;;;;;;;4990111;28;20187;-73
2021/09/14 03:59:05;;;;;;;17.65;12.73;;;;;;;;;;4989015;28;20185;-73
2021/09/14 04:01:35;;;;;;;16.70;11.93;;;;;;;;;;4992238;28;20195;-71
2021/09/14 04:04:09;;;;;;;15.55;11.95;;;;;;;;;;4990104;28;20302;-71
2021/09/14 04:09:34;;;;;;;17.20;11.83;;;;;;;;;;4974520;28;20192;-71
2021/09/14 04:11:59;;;;;;;16.53;11.53;;;;;;;;;;4990794;28;20660;-71
2021/09/14 04:14:26;;;;;;;17.15;12.50;;;;;;;;;;4992852;28;20219;-72
2021/09/14 04:16:51;;;;;;;16.70;11.80;;;;;;;;;;4975448;28;20190;-73
2021/09/14 04:19:16;;;;;;;30.23;13.32;;;;;;;;;;4992280;28;20851;-73
2021/09/14 04:21:41;;;;;;;18.23;13.57;;;;;;;;;;4990256;28;20179;-73
2021/09/14 04:24:06;;;;;;;19.70;12.52;;;;;;;;;;4996170;28;20215;-72
2021/09/14 04:26:31;;;;;;;18.05;13.40;;;;;;;;;;4974211;28;20214;-71
2021/09/14 04:28:57;;;;;;;18.38;14.63;;;;;;;;;;4986302;28;20179;-73
2021/09/14 04:31:22;;;;;;;19.60;13.20;;;;;;;;;;4989357;28;20207;-73
2021/09/14 04:33:47;;;;;;;18.42;12.93;;;;;;;;;;4990097;28;20425;-73
2021/09/14 04:36:12;;;;;;;20.52;13.23;;;;;;;;;;4974929;28;20242;-72
2021/09/14 04:38:39;;;;;;;17.10;12.80;;;;;;;;;;4976811;28;20187;-72
2021/09/14 04:41:05;;;;;;;16.60;12.90;;;;;;;;;;4989034;28;20184;-72
2021/09/14 04:43:30;;;;;;;17.55;12.48;;;;;;;;;;4989995;28;20727;-72
2021/09/14 04:45:55;;;;;;;20.52;12.82;;;;;;;;;;4990778;28;20212;-72
2021/09/14 04:48:20;;;;;;;23.25;12.95;;;;;;;;;;4990314;28;20180;-73
2021/09/14 04:50:45;;;;;;;17.50;12.93;;;;;;;;;;4991039;28;20257;-71
2021/09/14 04:53:10;;;;;;;20.60;13.18;;;;;;;;;;4975032;28;20696;-73
2021/09/14 04:55:36;;;;;;;14.75;12.20;;;;;;;;;;4990730;28;20330;-71
2021/09/14 04:58:01;;;;;;;19.42;12.77;;;;;;;;;;4991047;28;20217;-73
2021/09/14 05:00:26;;;;;;;19.10;12.75;;;;;;;;;;4987468;28;20345;-71
2021/09/14 05:02:52;;;;;;;18.85;12.20;;;;;;;;;;4977121;28;20186;-73
2021/09/14 05:05:17;;;;;;;18.70;12.75;;;;;;;;;;4988372;28;20203;-73
2021/09/14 05:07:42;;;;;;;17.88;13.65;;;;;;;;;;4976234;28;20204;-73
2021/09/14 05:10:08;;;;;;;19.50;12.95;;;;;;;;;;4988216;28;20182;-73
2021/09/14 05:12:33;;;;;;;21.67;13.23;;;;;;;;;;4973638;28;20281;-72
2021/09/14 05:14:58;;;;;;;21.20;13.82;;;;;;;;;;4987924;28;20199;-72
2021/09/14 05:17:23;;;;;;;21.60;15.05;;;;;;;;;;4986786;28;20199;-72
2021/09/14 05:19:50;;;;;;;20.50;12.75;;;;;;;;;;4991523;28;20572;-73
2021/09/14 05:22:19;;;;;;;19.73;14.55;;;;;;;;;;4971215;28;20281;-71
2021/09/14 05:24:44;;;;;;;19.77;13.82;;;;;;;;;;4960524;28;20215;-71
2021/09/14 05:27:10;;;;;;;21.00;14.63;;;;;;;;;;4978874;28;20560;-71
2021/09/14 05:29:35;;;;;;;20.58;13.75;;;;;;;;;;4984820;28;20192;-73
2021/09/14 05:32:00;;;;;;;19.00;13.10;;;;;;;;;;4990613;28;20298;-73
2021/09/14 05:34:25;;;;;;;20.75;14.05;;;;;;;;;;4990655;28;20204;-72
2021/09/14 05:36:51;;;;;;;17.20;13.93;;;;;;;;;;4991522;28;20183;-73
2021/09/14 05:39:16;;;;;;;21.27;14.45;;;;;;;;;;4993828;28;20191;-72
2021/09/14 05:41:41;;;;;;;18.55;13.68;;;;;;;;;;4987869;28;20184;-73
2021/09/14 05:44:06;;;;;;;20.00;13.75;;;;;;;;;;4994663;28;20258;-72
2021/09/14 05:46:31;;;;;;;19.65;13.25;;;;;;;;;;4988253;28;20207;-72
2021/09/14 05:48:56;;;;;;;18.05;13.63;;;;;;;;;;4993588;28;20179;-71
2021/09/14 05:51:22;;;;;;;17.58;12.68;;;;;;;;;;4989663;28;20184;-73
2021/09/14 05:53:47;;;;;;;16.90;12.93;;;;;;;;;;4991373;28;20223;-72
2021/09/14 05:56:13;;;;;;;19.85;13.70;;;;;;;;;;4990238;28;20207;-72
2021/09/14 05:58:38;;;;;;;16.98;12.80;;;;;;;;;;4990763;28;20218;-73
2021/09/14 06:01:03;;;;;;;16.77;13.02;;;;;;;;;;4989704;28;20208;-72
2021/09/14 06:03:29;;;;;;;17.98;12.82;;;;;;;;;;4989379;28;20295;-72
2021/09/14 06:05:54;;;;;;;16.08;13.50;;;;;;;;;;4973194;28;20214;-72
2021/09/14 06:08:19;;;;;;;14.82;12.80;;;;;;;;;;4989721;28;20225;-71
2021/09/14 06:10:45;;;;;;;16.27;12.38;;;;;;;;;;4992079;28;20528;-73
2021/09/14 06:13:10;;;;;;;30.98;14.27;;;;;;;;;;4993708;28;20250;-73
2021/09/14 06:15:35;;;;;;;18.23;12.77;;;;;;;;;;4989875;28;20164;-71
2021/09/14 06:18:00;;;;;;;18.92;13.50;;;;;;;;;;4988941;28;20180;-74
2021/09/14 06:20:26;;;;;;;18.13;12.68;;;;;;;;;;4982094;28;20254;-73
2021/09/14 06:22:51;;;;;;;23.08;13.38;;;;;;;;;;4992029;28;20195;-72
2021/09/14 06:25:16;;;;;;;17.40;13.35;;;;;;;;;;4978715;28;20203;-71
2021/09/14 06:27:41;;;;;;;15.05;12.27;;;;;;;;;;5002489;28;20707;-71
2021/09/14 06:30:07;;;;;;;17.50;12.85;;;;;;;;;;4990656;28;20191;-71
2021/09/14 06:32:32;;;;;;;20.35;13.52;;;;;;;;;;4993402;28;20180;-71
2021/09/14 06:34:58;;;;;;;18.83;13.77;;;;;;;;;;4992439;28;20204;-69
2021/09/14 06:37:23;;;;;;;19.20;13.70;;;;;;;;;;4998130;28;20183;-69
2021/09/14 06:39:48;;;;;;;18.55;13.20;;;;;;;;;;4991698;28;20187;-70
2021/09/14 06:42:13;;;;;;;18.17;14.45;;;;;;;;;;4991703;28;20183;-71
2021/09/14 06:44:38;;;;;;;20.60;14.90;;;;;;;;;;4993722;28;20210;-72
2021/09/14 06:47:04;;;;;;;16.77;13.52;;;;;;;;;;4995670;28;20286;-69
2021/09/14 06:49:29;;;;;;;16.30;13.35;;;;;;;;;;4992367;28;20727;-71
2021/09/14 06:51:55;;;;;;;20.30;13.77;;;;;;;;;;4991222;28;20191;-72
2021/09/14 06:54:20;;;;;;;16.83;13.70;;;;;;;;;;4993963;28;20195;-72
2021/09/14 06:56:45;;;;;;;19.17;14.23;;;;;;;;;;4987801;28;20219;-71
2021/09/14 06:59:10;;;;;;;18.33;14.00;;;;;;;;;;4991932;28;20906;-71
2021/09/14 07:01:36;;;;;;;18.83;14.23;;;;;;;;;;4993742;28;20424;-68
2021/09/14 07:04:01;;;;;;;17.45;14.13;;;;;;;;;;4992632;28;20218;-71
2021/09/14 07:06:26;;;;;;;18.37;14.43;;;;;;;;;;4992121;28;20195;-70
2021/09/14 07:08:51;;;;;;;18.60;14.98;;;;;;;;;;4996050;28;20525;-72
2021/09/14 07:11:17;;;;;;;18.15;14.38;;;;;;;;;;4994034;28;20191;-72
2021/09/14 07:13:43;;;;;;;17.70;13.73;;;;;;;;;;4992816;28;20227;-70
2021/09/14 07:16:08;;;;;;;16.00;14.30;;;;;;;;;;4990267;28;20668;-71
2021/09/14 07:18:37;;;;;;;19.25;15.25;;;;;;;;;;4990438;28;20522;-70
2021/09/14 07:21:03;;;;;;;18.83;15.90;;;;;;;;;;4986382;28;20175;-71
2021/09/14 07:23:28;;;;;;;16.63;13.95;;;;;;;;;;4987535;28;20363;-71
2021/09/14 07:25:53;;;;;;;16.05;12.82;;;;;;;;;;4973140;28;20190;-71
2021/09/14 07:28:18;;;;;;;20.53;14.50;;;;;;;;;;4988087;28;20187;-71
2021/09/14 07:30:43;;;;;;;16.07;12.93;;;;;;;;;;4990648;28;20414;-71
2021/09/14 07:33:09;;;;;;;17.15;14.05;;;;;;;;;;4984366;28;20735;-72
2021/09/14 07:35:35;;;;;;;17.13;14.10;;;;;;;;;;4987054;28;20266;-72
2021/09/14 07:38:00;;;;;;;18.92;13.00;;;;;;;;;;4986798;28;20192;-71
2021/09/14 07:40:25;;;;;;;15.05;11.75;;;;;;;;;;4986608;28;20183;-71
2021/09/14 07:42:51;;;;;;;16.48;13.05;;;;;;;;;;4990590;28;20187;-71
2021/09/14 07:45:16;;;;;;;16.42;13.18;;;;;;;;;;4986192;28;20202;-69
2021/09/14 07:47:41;;;;;;;15.37;12.53;;;;;;;;;;4990650;28;20214;-72
2021/09/14 07:50:07;;;;;;;16.73;12.85;;;;;;;;;;4990358;28;20515;-69
2021/09/14 07:52:32;;;;;;;15.90;13.60;;;;;;;;;;4989944;28;20176;-69
2021/09/14 07:54:57;;;;;;;18.00;14.40;;;;;;;;;;4989264;28;20199;-69
2021/09/14 07:57:22;;;;;;;15.70;13.52;;;;;;;;;;4986914;28;20557;-70
2021/09/14 07:59:48;;;;;;;17.33;13.30;;;;;;;;;;4989598;28;20596;-70
2021/09/14 08:02:13;;;;;;;16.15;12.88;;;;;;;;;;4989392;28;20435;-70
2021/09/14 08:04:38;;;;;;;14.70;12.23;;;;;;;;;;4989636;28;20203;-70
2021/09/14 08:07:03;;;;;;;14.25;12.75;;;;;;;;;;4986838;28;20467;-70
2021/09/14 08:09:30;;;;;;;15.75;12.38;;;;;;;;;;4984994;28;20262;-70
2021/09/14 08:11:56;;;;;;;17.75;13.38;;;;;;;;;;4990331;28;20175;-69
2021/09/14 08:14:21;;;;;;;15.75;13.05;;;;;;;;;;4992941;28;20203;-70
2021/09/14 08:16:46;;;;;;;15.38;13.73;;;;;;;;;;4987205;28;20225;-71
2021/09/14 08:19:11;;;;;;;12.63;11.35;;;;;;;;;;4989595;28;20199;-70
2021/09/14 08:21:37;;;;;;;15.43;12.83;;;;;;;;;;4988927;28;20190;-70
2021/09/14 08:24:02;;;;;;;15.68;13.13;;;;;;;;;;4988986;28;20456;-70
2021/09/14 08:26:27;;;;;;;14.07;12.63;;;;;;;;;;4989662;28;20574;-70
2021/09/14 08:28:52;;;;;;;13.82;12.00;;;;;;;;;;4985430;28;20258;-70
2021/09/14 08:31:18;;;;;;;15.48;13.60;;;;;;;;;;4970405;28;20566;-69
2021/09/14 08:33:43;;;;;;;13.97;11.90;;;;;;;;;;4984281;28;20235;-70
2021/09/14 08:36:08;;;;;;;13.27;11.98;;;;;;;;;;4975792;28;20562;-70
2021/09/14 08:38:34;;;;;;;14.52;11.38;;;;;;;;;;4987712;28;20545;-70
2021/09/14 08:40:59;;;;;;;13.57;11.00;;;;;;;;;;4995504;28;20175;-70
2021/09/14 08:43:24;;;;;;;14.32;11.88;;;;;;;;;;4988173;28;20761;-70
2021/09/14 08:45:50;;;;;;;15.00;11.43;;;;;;;;;;4991079;28;20187;-70
2021/09/14 08:48:16;;;;;;;16.38;12.82;;;;;;;;;;4989989;28;20552;-70
2021/09/14 08:50:41;;;;;;;12.75;11.45;;;;;;;;;;4989736;28;20230;-70
2021/09/14 08:53:07;;;;;;;13.48;11.98;;;;;;;;;;4974586;28;20191;-68
2021/09/14 08:55:35;;;;;;;14.02;12.65;;;;;;;;;;4995760;28;20521;-68
2021/09/14 08:58:01;;;;;;;13.68;12.20;;;;;;;;;;4986264;28;20180;-69
2021/09/14 09:00:36;;;;;;;15.20;12.10;;;;;;;;;;4994037;28;20715;-69
2021/09/14 09:03:01;;;;;;;17.17;12.55;;;;;;;;;;4986023;28;20192;-69
2021/09/14 09:05:30;;;;;;;14.35;12.85;;;;;;;;;;4987439;28;20169;-69
2021/09/14 09:07:56;;;;;;;13.18;11.57;;;;;;;;;;4986635;28;20294;-69
2021/09/14 09:10:21;;;;;;;15.70;12.40;;;;;;;;;;4970458;28;20619;-69
2021/09/14 09:12:47;;;;;;;14.07;12.37;;;;;;;;;;4998416;28;20177;-69
2021/09/14 09:15:28;;;;;;;14.25;11.38;;;;;;;;;;4987506;28;20456;-70
2021/09/14 09:18:04;;;;;;;13.27;11.48;;;;;;;;;;4986076;28;20281;-71
2021/09/14 09:20:30;;;;;;;14.18;12.68;;;;;;;;;;4984554;28;20183;-69
2021/09/14 09:23:00;;;;;;;13.23;11.85;;;;;;;;;;4992492;28;20197;-70
2021/09/14 09:25:25;;;;;;;13.70;11.93;;;;;;;;;;4969436;28;20249;-69
2021/09/14 09:28:01;;;;;;;15.13;11.88;;;;;;;;;;4978584;28;20237;-70
2021/09/14 09:30:29;;;;;;;12.77;11.48;;;;;;;;;;4989774;28;20183;-69
2021/09/14 09:32:54;;;;;;;14.15;11.20;;;;;;;;;;4991093;28;20581;-70
2021/09/14 09:35:26;;;;;;;11.73;10.53;;;;;;;;;;4986471;28;20275;-71
2021/09/14 09:37:52;;;;;;;12.50;11.20;;;;;;;;;;4990783;28;20184;-68
2021/09/14 09:40:24;;;;;;;16.80;11.23;;;;;;;;;;4985426;28;20747;-69
2021/09/14 09:42:50;;;;;;;15.23;11.20;;;;;;;;;;4983518;28;20183;-69
2021/09/14 09:45:19;;;;;;;13.02;11.65;;;;;;;;;;4985675;28;20582;-69
2021/09/14 09:47:46;;;;;;;13.02;10.77;;;;;;;;;;4997355;28;20226;-70
2021/09/14 09:50:12;;;;;;;12.10;10.90;;;;;;;;;;4990059;28;20230;-69
2021/09/14 09:52:37;;;;;;;12.05;10.88;;;;;;;;;;4989311;28;20175;-69
2021/09/14 09:55:02;;;;;;;11.30;10.20;;;;;;;;;;4989955;28;20282;-70
2021/09/14 09:57:28;;;;;;;11.43;9.23;;;;;;;;;;4991192;28;20254;-70
2021/09/14 09:59:54;;;;;;;11.98;10.77;;;;;;;;;;4991667;28;20641;-69
2021/09/14 10:02:21;;;;;;;11.38;10.18;;;;;;;;;;4986863;28;20202;-70
2021/09/14 10:04:56;;;;;;;12.30;10.05;;;;;;;;;;4984241;28;20206;-70
2021/09/14 10:07:26;;;;;;;11.85;10.05;;;;;;;;;;4987574;28;20210;-70
2021/09/14 10:09:52;;;;;;;13.57;10.65;;;;;;;;;;4989350;28;20211;-70
2021/09/14 10:12:24;;;;;;;12.45;9.70;;;;;;;;;;4990537;28;20188;-69
2021/09/14 10:14:57;;;;;;;11.32;10.07;;;;;;;;;;4988419;28;20761;-69
2021/09/14 10:17:22;;;;;;;11.40;10.20;;;;;;;;;;4992119;28;20187;-69
2021/09/14 10:19:47;;;;;;;10.57;9.30;;;;;;;;;;4992641;28;20183;-69
2021/09/14 10:22:21;;;;;;;14.50;9.73;;;;;;;;;;4992612;28;20188;-68
2021/09/14 10:24:51;;;;;;;12.77;9.77;;;;;;;;;;4990109;28;20457;-70
2021/09/14 10:27:16;;;;;;;11.00;9.45;;;;;;;;;;4990294;28;20208;-69
2021/09/14 10:29:41;;;;;;;11.75;10.40;;;;;;;;;;4983560;28;20630;-71
2021/09/14 10:32:07;;;;;;;13.95;11.02;;;;;;;;;;4989977;28;20472;-70
2021/09/14 10:34:33;;;;;;;12.57;9.55;;;;;;;;;;4993033;28;20196;-69
2021/09/14 10:37:03;;;;;;;12.60;10.25;;;;;;;;;;4990354;28;20184;-68
2021/09/14 10:39:32;;;;;;;12.13;10.93;;;;;;;;;;4993658;28;20179;-69
2021/09/14 10:41:58;;;;;;;12.73;10.55;;;;;;;;;;4993743;28;20571;-70
2021/09/14 10:44:24;;;;;;;12.13;10.83;;;;;;;;;;4989909;28;20199;-69
2021/09/14 10:46:50;;;;;;;15.07;9.60;;;;;;;;;;4971030;28;20501;-69
2021/09/14 10:49:15;;;;;;;11.48;10.38;;;;;;;;;;4989865;28;20233;-69
2021/09/14 10:51:40;;;;;;;10.10;9.10;;;;;;;;;;4998096;28;20672;-69
2021/09/14 10:54:06;;;;;;;10.55;9.50;;;;;;;;;;4992399;28;20200;-69
2021/09/14 10:56:31;;;;;;;10.80;9.70;;;;;;;;;;4997167;28;20175;-69
2021/09/14 10:58:56;;;;;;;11.87;9.40;;;;;;;;;;4993301;28;20969;-70
2021/09/14 11:01:23;;;;;;;11.20;9.90;;;;;;;;;;4996360;28;20460;-71
2021/09/14 11:03:52;;;;;;;15.98;10.55;;;;;;;;;;4994848;28;20195;-70
2021/09/14 11:06:17;;;;;;;12.48;10.25;;;;;;;;;;4985026;28;20183;-69
2021/09/14 11:08:45;;;;;;;10.38;9.20;;;;;;;;;;4991518;28;20315;-68
2021/09/14 11:11:15;;;;;;;11.18;9.75;;;;;;;;;;4993348;28;20555;-70
2021/09/14 11:13:40;;;;;;;15.80;11.60;;;;;;;;;;4995895;28;20199;-69
2021/09/14 11:16:05;;;;;;;10.57;9.47;;;;;;;;;;4988965;28;20557;-71
2021/09/14 11:18:34;;;;;;;11.27;9.77;;;;;;;;;;4994519;28;20472;-71
2021/09/14 11:21:10;;;;;;;11.65;10.32;;;;;;;;;;4987571;28;20188;-69
2021/09/14 11:23:36;;;;;;;14.90;9.82;;;;;;;;;;4972217;28;20203;-68
2021/09/14 11:26:01;;;;;;;11.57;10.38;;;;;;;;;;4992751;28;20203;-68
2021/09/14 11:28:27;;;;;;;12.43;9.85;;;;;;;;;;4998725;28;20179;-68
2021/09/14 11:30:54;;;;;;;13.93;10.00;;;;;;;;;;4992995;28;20175;-69
2021/09/14 11:33:19;;;;;;;11.60;9.07;;;;;;;;;;4991090;28;20196;-68
2021/09/14 11:35:44;;;;;;;14.35;9.90;;;;;;;;;;5000814;28;20245;-69
2021/09/14 11:38:11;;;;;;;11.00;8.70;;;;;;;;;;4989849;28;20180;-69
2021/09/14 11:40:44;;;;;;;9.85;8.90;;;;;;;;;;4969935;28;20271;-69
2021/09/14 11:43:10;;;;;;;10.52;8.95;;;;;;;;;;4992554;28;20704;-69
2021/09/14 11:45:36;;;;;;;10.18;9.07;;;;;;;;;;4990560;28;20270;-69
2021/09/14 11:48:01;;;;;;;11.40;8.85;;;;;;;;;;4994587;28;20293;-69
2021/09/14 11:50:27;;;;;;;11.85;9.60;;;;;;;;;;4994181;28;20258;-69
2021/09/14 11:53:01;;;;;;;11.63;9.55;;;;;;;;;;4987223;28;20176;-69
2021/09/14 11:55:27;;;;;;;11.07;9.85;;;;;;;;;;4985785;28;20283;-69
2021/09/14 11:57:56;;;;;;;13.02;8.07;;;;;;;;;;4990698;28;20317;-69
2021/09/14 12:00:21;;;;;;;11.70;8.15;;;;;;;;;;4970079;28;20301;-68
2021/09/14 12:02:50;;;;;;;9.23;8.32;;;;;;;;;;4995404;28;20322;-69
2021/09/14 12:05:19;;;;;;;12.45;8.70;;;;;;;;;;4989283;28;20195;-69
2021/09/14 12:07:53;;;;;;;11.40;9.88;;;;;;;;;;4988372;28;20588;-68
2021/09/14 12:10:18;;;;;;;8.43;7.50;;;;;;;;;;4990307;28;20175;-68
2021/09/14 12:12:49;;;;;;;10.83;9.07;;;;;;;;;;4989387;28;20221;-69
2021/09/14 12:15:14;;;;;;;10.30;8.52;;;;;;;;;;4987232;28;20891;-69
2021/09/14 12:17:39;;;;;;;8.63;7.80;;;;;;;;;;4989703;28;20206;-68
2021/09/14 12:20:05;;;;;;;10.70;9.13;;;;;;;;;;4989688;28;20175;-68
2021/09/14 12:22:30;;;;;;;12.57;8.40;;;;;;;;;;4992682;28;20283;-71
2021/09/14 12:24:55;;;;;;;9.37;8.47;;;;;;;;;;5026590;23;20253;-70
2021/09/14 12:27:20;;;;;;;9.27;8.33;;;;;;;;;;5023548;28;20300;-70
2021/09/14 12:29:45;;;;;;;10.53;9.30;;;;;;;;;;5012136;28;20512;-67
2021/09/14 12:32:10;;;;;;;12.73;9.07;;;;;;;;;;5014979;28;20179;-68
2021/09/14 12:34:36;;;;;;;10.60;9.25;;;;;;;;;;5012330;28;20190;-69
2021/09/14 12:37:01;;;;;;;10.13;8.93;;;;;;;;;;5021979;28;20179;-69
2021/09/14 12:39:26;;;;;;;9.93;8.90;;;;;;;;;;5020482;28;20710;-68
2021/09/14 12:41:51;;;;;;;11.30;10.10;;;;;;;;;;5026318;28;20305;-69
2021/09/14 12:44:16;;;;;;;12.00;10.73;;;;;;;;;;5024658;28;20455;-69
2021/09/14 12:46:41;;;;;;;10.53;9.53;;;;;;;;;;5017073;28;20667;-69
2021/09/14 12:49:07;;;;;;;14.87;10.80;;;;;;;;;;5020503;28;20440;-69
2021/09/14 12:51:32;;;;;;;11.68;10.48;;;;;;;;;;5026564;28;20454;-69
2021/09/14 12:53:57;;;;;;;11.88;10.35;;;;;;;;;;5025807;28;20198;-69
2021/09/14 12:56:22;;;;;;;14.48;11.35;;;;;;;;;;5026774;28;20182;-69
2021/09/14 12:58:48;;;;;;;11.10;9.95;;;;;;;;;;5009244;28;20182;-69
2021/09/14 13:01:13;;;;;;;13.20;10.63;;;;;;;;;;5023619;28;20178;-69
2021/09/14 13:03:38;;;;;;;12.70;11.35;;;;;;;;;;5024665;28;20189;-69
2021/09/14 13:06:03;;;;;;;12.37;11.07;;;;;;;;;;5021979;28;20183;-69
2021/09/14 13:08:28;;;;;;;11.87;10.67;;;;;;;;;;5023391;28;20305;-69
2021/09/14 13:10:56;;;;;;;12.73;11.43;;;;;;;;;;5027818;28;20426;-69
2021/09/14 13:16:11;;;;;;;12.80;11.43;;;;;;;;;;5025517;28;20232;-69
2021/09/14 13:18:40;;;;;;;13.95;11.15;;;;;;;;;;5023757;28;20557;-69
2021/09/14 13:21:06;;;;;;;13.13;11.93;;;;;;;;;;5023104;28;20194;-69
2021/09/14 13:23:32;;;;;;;14.05;11.55;;;;;;;;;;5020601;28;20194;-69
2021/09/14 13:25:57;;;;;;;12.82;10.23;;;;;;;;;;5024159;28;20213;-67
2021/09/14 13:28:22;;;;;;;13.90;11.02;;;;;;;;;;5017396;28;20206;-69
2021/09/14 13:30:47;;;;;;;12.32;11.07;;;;;;;;;;5024923;28;20635;-70
2021/09/14 13:33:13;;;;;;;10.95;9.85;;;;;;;;;;5026408;28;20675;-70
2021/09/14 13:35:39;;;;;;;12.53;11.20;;;;;;;;;;5024693;28;20206;-70
2021/09/14 13:38:04;;;;;;;13.32;11.90;;;;;;;;;;5009231;28;20426;-70
2021/09/14 13:40:29;;;;;;;12.40;11.20;;;;;;;;;;5019795;28;20201;-70
2021/09/14 13:42:57;;;;;;;12.93;11.73;;;;;;;;;;5028677;28;20442;-69
2021/09/14 13:48:06;;;;;;;13.25;11.13;;;;;;;;;;5030396;28;20235;-69
2021/09/14 13:50:32;;;;;;;12.63;11.32;;;;;;;;;;5021954;28;20210;-69
2021/09/14 13:52:57;;;;;;;12.00;10.80;;;;;;;;;;5029861;28;20553;-69
2021/09/14 13:55:22;;;;;;;11.93;10.67;;;;;;;;;;5026428;28;20202;-68
2021/09/14 13:57:47;;;;;;;13.77;12.33;;;;;;;;;;5010901;28;20463;-68
2021/09/14 14:00:13;;;;;;;14.48;13.02;;;;;;;;;;5011914;28;20186;-70
2021/09/14 14:02:38;;;;;;;12.48;11.27;;;;;;;;;;5009948;28;20247;-68
2021/09/14 14:05:03;;;;;;;13.77;11.47;;;;;;;;;;5029659;28;20262;-68
2021/09/14 14:07:28;;;;;;;15.90;12.55;;;;;;;;;;5006871;28;20471;-68
2021/09/14 14:09:54;;;;;;;13.50;12.10;;;;;;;;;;5031219;28;20190;-68
2021/09/14 14:12:19;;;;;;;12.50;11.20;;;;;;;;;;5033551;28;20486;-67
2021/09/14 14:14:44;;;;;;;12.50;10.48;;;;;;;;;;5041550;28;20217;-67
2021/09/14 14:17:10;;;;;;;16.75;12.88;;;;;;;;;;5040276;28;21049;-69
2021/09/14 14:19:35;;;;;;;14.73;11.98;;;;;;;;;;5041043;28;20174;-69
2021/09/14 14:22:00;;;;;;;17.13;13.27;;;;;;;;;;5040727;28;20186;-68
2021/09/14 14:24:25;;;;;;;13.43;12.10;;;;;;;;;;5044166;28;20952;-68
2021/09/14 14:26:51;;;;;;;15.23;12.63;;;;;;;;;;5040565;28;20297;-67
2021/09/14 14:29:16;;;;;;;16.10;13.13;;;;;;;;;;5037321;28;20450;-67
2021/09/14 14:31:41;;;;;;;12.43;11.23;;;;;;;;;;5033066;28;20477;-68
2021/09/14 14:34:06;;;;;;;15.50;13.40;;;;;;;;;;5030989;28;20570;-68
2021/09/14 14:36:31;;;;;;;16.58;13.55;;;;;;;;;;5026557;28;20447;-68
2021/09/14 14:38:56;;;;;;;15.50;13.57;;;;;;;;;;5027713;28;20192;-68
2021/09/14 14:41:22;;;;;;;18.65;13.82;;;;;;;;;;5029357;28;20435;-68
2021/09/14 14:43:47;;;;;;;14.63;12.60;;;;;;;;;;5031589;28;20225;-68
2021/09/14 14:46:12;;;;;;;17.17;13.93;;;;;;;;;;5030084;28;20424;-68
2021/09/14 14:48:37;;;;;;;16.20;14.50;;;;;;;;;;5030212;28;20904;-68
2021/09/14 14:51:03;;;;;;;17.50;13.95;;;;;;;;;;5030918;28;20265;-68
2021/09/14 14:53:28;;;;;;;16.57;14.97;;;;;;;;;;5011944;28;20174;-69
2021/09/14 14:55:53;;;;;;;20.65;14.85;;;;;;;;;;5028491;28;20455;-69
2021/09/14 14:58:18;;;;;;;15.60;14.00;;;;;;;;;;5027487;28;20269;-69
2021/09/14 15:00:44;;;;;;;15.37;13.77;;;;;;;;;;5029212;28;20428;-69
2021/09/14 15:03:09;;;;;;;15.38;13.77;;;;;;;;;;5023606;28;20462;-69
2021/09/14 15:05:34;;;;;;;26.15;15.30;;;;;;;;;;5028572;28;20204;-69
2021/09/14 15:08:00;;;;;;;18.67;14.90;;;;;;;;;;5026814;28;20210;-69
2021/09/14 15:10:25;;;;;;;14.77;13.27;;;;;;;;;;5011514;28;20424;-69
2021/09/14 15:12:52;;;;;;;16.10;14.45;;;;;;;;;;5009399;28;20446;-69
2021/09/14 15:15:17;;;;;;;15.35;13.75;;;;;;;;;;5028303;28;20850;-71